sensor_id;sensor_type;location;lat;lon;timestamp;pressure;altitude;pressure_sealevel;temperature;humidity
32933;BME280;19444;50.518;10.870;2023-03-14T00:02:03;94601.22;;;8.14;100.00
32933;BME280;19444;50.518;10.870;2023-03-14T00:05:00;94594.78;;;8.15;100.00
32933;BME280;19444;50.518;10.870;2023-03-14T00:07:59;94584.97;;;8.19;100.00
32933;BME280;19444;50.518;10.870;2023-03-14T00:10:56;94562.88;;;8.06;100.00
32933;BME280;19444;50.518;10.870;2023-03-14T00:13:54;94585.09;;;8.10;100.00
32933;BME280;19444;50.518;10.870;2023-03-14T00:16:51;94589.09;;;8.04;100.00
32933;BME280;19444;50.518;10.870;2023-03-14T00:19:48;94619.69;;;8.07;100.00
32933;BME280;19444;50.518;10.870;2023-03-14T00:22:48;94649.47;;;8.09;100.00
32933;BME280;19444;50.518;10.870;2023-03-14T00:25:45;94669.69;;;8.10;100.00
32933;BME280;19444;50.518;10.870;2023-03-14T00:28:43;94684.03;;;8.05;100.00
32933;BME280;19444;50.518;10.870;2023-03-14T00:31:40;94673.81;;;8.07;100.00
32933;BME280;19444;50.518;10.870;2023-03-14T00:34:37;94681.16;;;7.98;100.00
32933;BME280;19444;50.518;10.870;2023-03-14T00:37:34;94680.47;;;8.01;100.00
32933;BME280;19444;50.518;10.870;2023-03-14T00:40:31;94684.16;;;7.96;100.00
32933;BME280;19444;50.518;10.870;2023-03-14T00:43:28;94691.25;;;7.92;100.00
32933;BME280;19444;50.518;10.870;2023-03-14T00:46:25;94685.72;;;7.97;100.00
32933;BME280;19444;50.518;10.870;2023-03-14T00:49:22;94676.94;;;7.85;100.00
32933;BME280;19444;50.518;10.870;2023-03-14T00:52:19;94674.72;;;7.99;100.00
32933;BME280;19444;50.518;10.870;2023-03-14T00:55:16;94682.72;;;7.87;100.00
32933;BME280;19444;50.518;10.870;2023-03-14T00:58:15;94658.91;;;7.94;100.00
32933;BME280;19444;50.518;10.870;2023-03-14T01:01:17;94661.94;;;7.92;100.00
32933;BME280;19444;50.518;10.870;2023-03-14T01:04:14;94663.47;;;7.93;100.00
32933;BME280;19444;50.518;10.870;2023-03-14T01:07:11;94664.84;;;7.87;100.00
32933;BME280;19444;50.518;10.870;2023-03-14T01:10:10;94664.72;;;7.84;100.00
32933;BME280;19444;50.518;10.870;2023-03-14T01:13:08;94681.16;;;7.86;100.00
32933;BME280;19444;50.518;10.870;2023-03-14T01:16:08;94675.72;;;7.82;100.00
32933;BME280;19444;50.518;10.870;2023-03-14T01:19:06;94665.16;;;7.86;100.00
32933;BME280;19444;50.518;10.870;2023-03-14T01:22:03;94657.94;;;7.86;100.00
32933;BME280;19444;50.518;10.870;2023-03-14T01:25:00;94644.16;;;7.84;100.00
32933;BME280;19444;50.518;10.870;2023-03-14T01:27:57;94634.59;;;7.83;100.00
32933;BME280;19444;50.518;10.870;2023-03-14T01:30:54;94622.28;;;7.79;100.00
32933;BME280;19444;50.518;10.870;2023-03-14T01:33:52;94627.72;;;7.82;100.00
32933;BME280;19444;50.518;10.870;2023-03-14T01:36:49;94620.75;;;7.78;100.00
32933;BME280;19444;50.518;10.870;2023-03-14T01:39:49;94621.25;;;7.83;100.00
32933;BME280;19444;50.518;10.870;2023-03-14T01:42:57;94620.75;;;7.78;100.00
32933;BME280;19444;50.518;10.870;2023-03-14T01:49:25;94594.06;;;7.78;100.00
32933;BME280;19444;50.518;10.870;2023-03-14T01:52:29;94592.06;;;7.75;100.00
32933;BME280;19444;50.518;10.870;2023-03-14T01:55:30;94585.94;;;7.74;100.00
32933;BME280;19444;50.518;10.870;2023-03-14T01:58:28;94574.28;;;7.79;100.00
32933;BME280;19444;50.518;10.870;2023-03-14T02:01:28;94575.84;;;7.80;100.00
32933;BME280;19444;50.518;10.870;2023-03-14T02:04:29;94576.28;;;7.82;100.00
32933;BME280;19444;50.518;10.870;2023-03-14T02:07:51;94575.06;;;7.79;100.00
32933;BME280;19444;50.518;10.870;2023-03-14T02:10:50;94568.84;;;7.75;100.00
32933;BME280;19444;50.518;10.870;2023-03-14T02:13:48;94569.28;;;7.77;100.00
32933;BME280;19444;50.518;10.870;2023-03-14T02:16:46;94549.06;;;7.76;100.00
32933;BME280;19444;50.518;10.870;2023-03-14T02:27:13;94557.75;;;7.73;100.00
32933;BME280;19444;50.518;10.870;2023-03-14T02:30:19;94553.06;;;7.82;100.00
32933;BME280;19444;50.518;10.870;2023-03-14T02:33:19;94553.44;;;7.68;100.00
32933;BME280;19444;50.518;10.870;2023-03-14T02:36:18;94545.75;;;7.67;100.00
32933;BME280;19444;50.518;10.870;2023-03-14T02:39:24;94540.75;;;7.65;100.00
32933;BME280;19444;50.518;10.870;2023-03-14T02:42:24;94537.22;;;7.61;100.00
32933;BME280;19444;50.518;10.870;2023-03-14T02:48:35;94536.78;;;7.59;100.00
32933;BME280;19444;50.518;10.870;2023-03-14T02:51:33;94537.56;;;7.60;100.00
32933;BME280;19444;50.518;10.870;2023-03-14T02:54:30;94543.97;;;7.59;100.00
32933;BME280;19444;50.518;10.870;2023-03-14T02:57:27;94520.31;;;7.57;100.00
32933;BME280;19444;50.518;10.870;2023-03-14T03:00:24;94516.22;;;7.60;100.00
32933;BME280;19444;50.518;10.870;2023-03-14T03:03:21;94497.56;;;7.60;100.00
32933;BME280;19444;50.518;10.870;2023-03-14T03:06:18;94502.13;;;7.59;100.00
32933;BME280;19444;50.518;10.870;2023-03-14T03:09:15;94502.56;;;7.61;100.00
32933;BME280;19444;50.518;10.870;2023-03-14T03:12:12;94500.38;;;7.51;100.00
32933;BME280;19444;50.518;10.870;2023-03-14T03:15:10;94505.22;;;7.61;100.00
32933;BME280;19444;50.518;10.870;2023-03-14T03:18:07;94494.66;;;7.65;100.00
32933;BME280;19444;50.518;10.870;2023-03-14T03:21:05;94486.44;;;7.58;100.00
32933;BME280;19444;50.518;10.870;2023-03-14T03:24:02;94497.56;;;7.60;100.00
32933;BME280;19444;50.518;10.870;2023-03-14T03:26:59;94499.69;;;7.54;100.00
32933;BME280;19444;50.518;10.870;2023-03-14T03:29:56;94499.91;;;7.61;100.00
32933;BME280;19444;50.518;10.870;2023-03-14T03:32:53;94488.69;;;7.56;100.00
32933;BME280;19444;50.518;10.870;2023-03-14T03:35:51;94483.00;;;7.57;100.00
32933;BME280;19444;50.518;10.870;2023-03-14T03:38:49;94487.13;;;7.55;100.00
32933;BME280;19444;50.518;10.870;2023-03-14T03:41:46;94488.25;;;7.54;100.00
32933;BME280;19444;50.518;10.870;2023-03-14T03:44:43;94473.38;;;7.53;100.00
32933;BME280;19444;50.518;10.870;2023-03-14T03:47:40;94476.03;;;7.53;100.00
32933;BME280;19444;50.518;10.870;2023-03-14T03:50:37;94473.81;;;7.55;100.00
32933;BME280;19444;50.518;10.870;2023-03-14T03:53:34;94488.34;;;7.57;100.00
32933;BME280;19444;50.518;10.870;2023-03-14T03:56:30;94475.25;;;7.52;100.00
32933;BME280;19444;50.518;10.870;2023-03-14T03:59:28;94473.13;;;7.58;100.00
32933;BME280;19444;50.518;10.870;2023-03-14T04:02:25;94468.13;;;7.56;100.00
32933;BME280;19444;50.518;10.870;2023-03-14T04:05:22;94469.59;;;7.54;100.00
32933;BME280;19444;50.518;10.870;2023-03-14T04:08:19;94475.47;;;7.47;100.00
32933;BME280;19444;50.518;10.870;2023-03-14T04:11:16;94476.25;;;7.48;100.00
32933;BME280;19444;50.518;10.870;2023-03-14T04:14:13;94475.16;;;7.49;100.00
32933;BME280;19444;50.518;10.870;2023-03-14T04:17:10;94477.50;;;7.50;100.00
32933;BME280;19444;50.518;10.870;2023-03-14T04:20:08;94467.06;;;7.45;100.00
32933;BME280;19444;50.518;10.870;2023-03-14T04:23:07;94460.59;;;7.46;100.00
32933;BME280;19444;50.518;10.870;2023-03-14T04:26:04;94448.31;;;7.41;100.00
32933;BME280;19444;50.518;10.870;2023-03-14T04:29:01;94457.84;;;7.43;100.00
32933;BME280;19444;50.518;10.870;2023-03-14T04:31:58;94448.31;;;7.41;100.00
32933;BME280;19444;50.518;10.870;2023-03-14T04:34:55;94427.31;;;7.40;100.00
32933;BME280;19444;50.518;10.870;2023-03-14T04:37:52;94435.75;;;7.42;100.00
32933;BME280;19444;50.518;10.870;2023-03-14T04:40:49;94435.00;;;7.41;100.00
32933;BME280;19444;50.518;10.870;2023-03-14T04:43:46;94424.00;;;7.43;100.00
32933;BME280;19444;50.518;10.870;2023-03-14T04:46:43;94425.09;;;7.42;100.00
32933;BME280;19444;50.518;10.870;2023-03-14T04:49:40;94415.78;;;7.36;100.00
32933;BME280;19444;50.518;10.870;2023-03-14T04:52:39;94421.19;;;7.39;100.00
32933;BME280;19444;50.518;10.870;2023-03-14T04:55:36;94400.66;;;7.40;100.00
32933;BME280;19444;50.518;10.870;2023-03-14T04:58:33;94406.00;;;7.40;100.00
32933;BME280;19444;50.518;10.870;2023-03-14T05:01:30;94411.66;;;7.38;100.00
32933;BME280;19444;50.518;10.870;2023-03-14T05:04:27;94397.47;;;7.34;100.00
32933;BME280;19444;50.518;10.870;2023-03-14T05:07:24;94394.94;;;7.26;100.00
32933;BME280;19444;50.518;10.870;2023-03-14T05:10:21;94398.13;;;7.31;100.00
32933;BME280;19444;50.518;10.870;2023-03-14T05:13:18;94399.50;;;7.25;100.00
32933;BME280;19444;50.518;10.870;2023-03-14T05:16:15;94395.38;;;7.28;100.00
32933;BME280;19444;50.518;10.870;2023-03-14T05:19:12;94390.38;;;7.26;100.00
32933;BME280;19444;50.518;10.870;2023-03-14T05:22:10;94384.16;;;7.22;100.00
32933;BME280;19444;50.518;10.870;2023-03-14T05:25:09;94382.31;;;7.23;100.00
32933;BME280;19444;50.518;10.870;2023-03-14T05:28:06;94390.31;;;7.23;100.00
32933;BME280;19444;50.518;10.870;2023-03-14T05:31:07;94386.06;;;7.22;100.00
32933;BME280;19444;50.518;10.870;2023-03-14T05:34:04;94391.84;;;7.24;100.00
32933;BME280;19444;50.518;10.870;2023-03-14T05:37:01;94394.81;;;7.34;100.00
32933;BME280;19444;50.518;10.870;2023-03-14T05:39:58;94396.72;;;7.22;100.00
32933;BME280;19444;50.518;10.870;2023-03-14T05:42:55;94393.91;;;7.30;100.00
32933;BME280;19444;50.518;10.870;2023-03-14T05:45:52;94384.38;;;7.29;100.00
32933;BME280;19444;50.518;10.870;2023-03-14T05:48:49;94387.94;;;7.21;100.00
32933;BME280;19444;50.518;10.870;2023-03-14T05:51:46;94387.94;;;7.21;100.00
32933;BME280;19444;50.518;10.870;2023-03-14T05:54:43;94387.81;;;7.30;100.00
32933;BME280;19444;50.518;10.870;2023-03-14T05:57:39;94385.84;;;7.27;100.00
32933;BME280;19444;50.518;10.870;2023-03-14T06:00:36;94399.84;;;7.24;100.00
32933;BME280;19444;50.518;10.870;2023-03-14T06:03:33;94386.94;;;7.26;100.00
32933;BME280;19444;50.518;10.870;2023-03-14T06:06:30;94380.84;;;7.25;100.00
32933;BME280;19444;50.518;10.870;2023-03-14T06:09:27;94386.19;;;7.25;100.00
32933;BME280;19444;50.518;10.870;2023-03-14T06:12:24;94389.81;;;7.33;100.00
32933;BME280;19444;50.518;10.870;2023-03-14T06:15:22;94388.06;;;7.25;100.00
32933;BME280;19444;50.518;10.870;2023-03-14T06:18:19;94368.31;;;7.26;100.00
32933;BME280;19444;50.518;10.870;2023-03-14T06:21:16;94372.16;;;7.28;100.00
32933;BME280;19444;50.518;10.870;2023-03-14T06:24:15;94367.53;;;7.25;100.00
32933;BME280;19444;50.518;10.870;2023-03-14T06:27:11;94360.19;;;7.22;100.00
32933;BME280;19444;50.518;10.870;2023-03-14T06:30:09;94353.53;;;7.28;100.00
32933;BME280;19444;50.518;10.870;2023-03-14T06:33:06;94354.31;;;7.29;100.00
32933;BME280;19444;50.518;10.870;2023-03-14T06:36:03;94360.84;;;7.31;100.00
32933;BME280;19444;50.518;10.870;2023-03-14T06:39:00;94356.63;;;7.30;100.00
32933;BME280;19444;50.518;10.870;2023-03-14T06:41:57;94359.41;;;7.34;100.00
32933;BME280;19444;50.518;10.870;2023-03-14T06:44:54;94357.31;;;7.27;100.00
32933;BME280;19444;50.518;10.870;2023-03-14T06:47:51;94365.38;;;7.31;100.00
32933;BME280;19444;50.518;10.870;2023-03-14T06:50:49;94364.19;;;7.28;100.00
32933;BME280;19444;50.518;10.870;2023-03-14T06:53:46;94358.09;;;7.28;100.00
32933;BME280;19444;50.518;10.870;2023-03-14T06:56:43;94358.47;;;7.14;100.00
32933;BME280;19444;50.518;10.870;2023-03-14T06:59:40;94350.47;;;7.14;100.00
32933;BME280;19444;50.518;10.870;2023-03-14T07:02:37;94344.91;;;7.19;100.00
32933;BME280;19444;50.518;10.870;2023-03-14T07:05:38;94348.69;;;7.18;100.00
32933;BME280;19444;50.518;10.870;2023-03-14T07:08:37;94347.00;;;7.26;100.00
32933;BME280;19444;50.518;10.870;2023-03-14T07:11:36;94347.84;;;7.30;100.00
32933;BME280;19444;50.518;10.870;2023-03-14T07:14:32;94341.22;;;7.24;100.00
32933;BME280;19444;50.518;10.870;2023-03-14T07:17:29;94347.84;;;7.30;100.00
32933;BME280;19444;50.518;10.870;2023-03-14T07:20:26;94345.31;;;7.33;100.00
32933;BME280;19444;50.518;10.870;2023-03-14T07:23:23;94342.03;;;7.40;100.00
32933;BME280;19444;50.518;10.870;2023-03-14T07:26:20;94344.38;;;7.41;100.00
32933;BME280;19444;50.518;10.870;2023-03-14T07:29:17;94344.13;;;7.47;100.00
32933;BME280;19444;50.518;10.870;2023-03-14T07:32:14;94341.72;;;7.41;100.00
32933;BME280;19444;50.518;10.870;2023-03-14T07:35:11;94331.16;;;7.45;100.00
32933;BME280;19444;50.518;10.870;2023-03-14T07:38:08;94335.28;;;7.43;100.00
32933;BME280;19444;50.518;10.870;2023-03-14T07:41:06;94349.03;;;7.45;100.00
32933;BME280;19444;50.518;10.870;2023-03-14T07:44:03;94343.44;;;7.50;100.00
32933;BME280;19444;50.518;10.870;2023-03-14T07:47:00;94343.28;;;7.43;100.00
32933;BME280;19444;50.518;10.870;2023-03-14T07:49:57;94339.50;;;7.44;100.00
32933;BME280;19444;50.518;10.870;2023-03-14T07:52:54;94324.56;;;7.55;100.00
32933;BME280;19444;50.518;10.870;2023-03-14T07:55:53;94326.97;;;7.60;100.00
32933;BME280;19444;50.518;10.870;2023-03-14T07:58:50;94334.22;;;7.59;100.00
32933;BME280;19444;50.518;10.870;2023-03-14T08:01:47;94336.75;;;7.56;100.00
32933;BME280;19444;50.518;10.870;2023-03-14T08:04:44;94333.75;;;7.57;100.00
32933;BME280;19444;50.518;10.870;2023-03-14T08:07:41;94335.28;;;7.58;100.00
32933;BME280;19444;50.518;10.870;2023-03-14T08:10:38;94338.00;;;7.74;100.00
32933;BME280;19444;50.518;10.870;2023-03-14T08:13:37;94331.44;;;7.56;100.00
32933;BME280;19444;50.518;10.870;2023-03-14T08:16:34;94341.50;;;7.62;100.00
32933;BME280;19444;50.518;10.870;2023-03-14T08:19:31;94348.81;;;7.65;100.00
32933;BME280;19444;50.518;10.870;2023-03-14T08:22:27;94346.91;;;7.66;100.00
32933;BME280;19444;50.518;10.870;2023-03-14T08:25:25;94342.47;;;7.70;100.00
32933;BME280;19444;50.518;10.870;2023-03-14T08:28:22;94344.25;;;7.66;100.00
32933;BME280;19444;50.518;10.870;2023-03-14T08:31:19;94337.38;;;7.65;100.00
32933;BME280;19444;50.518;10.870;2023-03-14T08:34:16;94339.34;;;7.68;100.00
32933;BME280;19444;50.518;10.870;2023-03-14T08:37:13;94347.69;;;7.66;100.00
32933;BME280;19444;50.518;10.870;2023-03-14T08:40:22;94352.25;;;7.66;100.00
32933;BME280;19444;50.518;10.870;2023-03-14T08:43:19;94342.81;;;7.68;100.00
32933;BME280;19444;50.518;10.870;2023-03-14T08:46:16;94352.84;;;7.59;100.00
32933;BME280;19444;50.518;10.870;2023-03-14T08:49:13;94355.41;;;7.56;100.00
32933;BME280;19444;50.518;10.870;2023-03-14T08:52:11;94350.00;;;7.52;100.00
32933;BME280;19444;50.518;10.870;2023-03-14T08:55:09;94354.97;;;7.54;100.00
32933;BME280;19444;50.518;10.870;2023-03-14T08:58:06;94357.38;;;7.59;100.00
32933;BME280;19444;50.518;10.870;2023-03-14T09:01:05;94356.88;;;7.53;100.00
32933;BME280;19444;50.518;10.870;2023-03-14T09:04:02;94368.81;;;7.31;100.00
32933;BME280;19444;50.518;10.870;2023-03-14T09:06:59;94369.47;;;7.40;100.00
32933;BME280;19444;50.518;10.870;2023-03-14T09:09:57;94374.34;;;7.38;100.00
32933;BME280;19444;50.518;10.870;2023-03-14T09:12:54;94366.16;;;7.31;100.00
32933;BME280;19444;50.518;10.870;2023-03-14T09:15:56;94369.50;;;7.28;100.00
32933;BME280;19444;50.518;10.870;2023-03-14T09:18:53;94374.63;;;7.33;100.00
32933;BME280;19444;50.518;10.870;2023-03-14T09:21:51;94373.38;;;7.31;100.00
32933;BME280;19444;50.518;10.870;2023-03-14T09:24:47;94374.94;;;7.32;100.00
32933;BME280;19444;50.518;10.870;2023-03-14T09:27:44;94364.47;;;7.39;100.00
32933;BME280;19444;50.518;10.870;2023-03-14T09:30:41;94373.50;;;7.34;100.00
32933;BME280;19444;50.518;10.870;2023-03-14T09:33:38;94365.25;;;7.39;100.00
32933;BME280;19444;50.518;10.870;2023-03-14T09:36:35;94369.28;;;7.33;100.00
32933;BME280;19444;50.518;10.870;2023-03-14T09:39:34;94364.13;;;7.40;100.00
32933;BME280;19444;50.518;10.870;2023-03-14T09:42:31;94371.19;;;7.33;100.00
32933;BME280;19444;50.518;10.870;2023-03-14T09:45:31;94363.03;;;7.41;100.00
32933;BME280;19444;50.518;10.870;2023-03-14T09:48:32;94371.47;;;7.44;100.00
32933;BME280;19444;50.518;10.870;2023-03-14T09:51:29;94371.66;;;7.51;100.00
32933;BME280;19444;50.518;10.870;2023-03-14T09:54:47;94362.22;;;7.53;100.00
32933;BME280;19444;50.518;10.870;2023-03-14T09:57:46;94367.41;;;7.50;100.00
32933;BME280;19444;50.518;10.870;2023-03-14T10:00:45;94367.09;;;7.51;100.00
32933;BME280;19444;50.518;10.870;2023-03-14T10:03:42;94367.88;;;7.52;100.00
32933;BME280;19444;50.518;10.870;2023-03-14T10:06:41;94365.50;;;7.62;100.00
32933;BME280;19444;50.518;10.870;2023-03-14T10:09:37;94366.34;;;7.66;100.00
32933;BME280;19444;50.518;10.870;2023-03-14T10:12:36;94366.28;;;7.63;100.00
32933;BME280;19444;50.518;10.870;2023-03-14T10:15:35;94356.03;;;7.65;100.00
32933;BME280;19444;50.518;10.870;2023-03-14T10:18:33;94362.13;;;7.65;100.00
32933;BME280;19444;50.518;10.870;2023-03-14T10:21:50;94366.56;;;7.74;100.00
32933;BME280;19444;50.518;10.870;2023-03-14T10:24:57;94368.94;;;7.63;100.00
32933;BME280;19444;50.518;10.870;2023-03-14T10:27:57;94365.44;;;7.75;100.00
32933;BME280;19444;50.518;10.870;2023-03-14T10:30:56;94368.06;;;7.87;100.00
32933;BME280;19444;50.518;10.870;2023-03-14T10:34:04;94364.63;;;8.02;100.00
32933;BME280;19444;50.518;10.870;2023-03-14T10:37:25;94350.00;;;7.96;100.00
32933;BME280;19444;50.518;10.870;2023-03-14T10:40:39;94360.81;;;7.87;100.00
32933;BME280;19444;50.518;10.870;2023-03-14T10:43:37;94355.66;;;7.94;100.00
32933;BME280;19444;50.518;10.870;2023-03-14T10:46:35;94361.59;;;8.04;100.00
32933;BME280;19444;50.518;10.870;2023-03-14T10:49:37;94348.09;;;7.96;100.00
32933;BME280;19444;50.518;10.870;2023-03-14T10:52:34;94352.22;;;8.10;100.00
32933;BME280;19444;50.518;10.870;2023-03-14T10:55:52;94354.66;;;8.15;100.00
32933;BME280;19444;50.518;10.870;2023-03-14T10:58:56;94351.72;;;8.20;100.00
32933;BME280;19444;50.518;10.870;2023-03-14T11:09:00;94347.25;;;8.40;100.00
32933;BME280;19444;50.518;10.870;2023-03-14T11:15:36;94349.03;;;8.20;100.00
32933;BME280;19444;50.518;10.870;2023-03-14T11:25:49;94352.31;;;8.13;100.00
32933;BME280;19444;50.518;10.870;2023-03-14T11:32:44;94343.47;;;8.41;100.00
32933;BME280;19444;50.518;10.870;2023-03-14T11:36:06;94346.22;;;8.44;100.00
32933;BME280;19444;50.518;10.870;2023-03-14T11:39:17;94344.59;;;8.40;100.00
32933;BME280;19444;50.518;10.870;2023-03-14T11:42:16;94339.69;;;8.42;100.00
32933;BME280;19444;50.518;10.870;2023-03-14T11:45:19;94339.94;;;8.52;100.00
32933;BME280;19444;50.518;10.870;2023-03-14T11:48:37;94339.31;;;8.59;100.00
32933;BME280;19444;50.518;10.870;2023-03-14T11:51:39;94336.31;;;8.61;100.00
32933;BME280;19444;50.518;10.870;2023-03-14T11:58:26;94330.53;;;8.59;100.00
32933;BME280;19444;50.518;10.870;2023-03-14T12:01:33;94333.66;;;8.61;100.00
32933;BME280;19444;50.518;10.870;2023-03-14T12:11:50;94324.38;;;9.28;100.00
32933;BME280;19444;50.518;10.870;2023-03-14T12:14:58;94301.09;;;9.29;100.00
32933;BME280;19444;50.518;10.870;2023-03-14T12:17:56;94299.75;;;9.00;100.00
32933;BME280;19444;50.518;10.870;2023-03-14T12:21:01;94295.13;;;9.16;100.00
32933;BME280;19444;50.518;10.870;2023-03-14T12:23:59;94306.03;;;9.07;100.00
32933;BME280;19444;50.518;10.870;2023-03-14T12:27:00;94309.75;;;9.22;100.00
32933;BME280;19444;50.518;10.870;2023-03-14T12:30:00;94292.59;;;9.43;100.00
32933;BME280;19444;50.518;10.870;2023-03-14T12:36:31;94287.72;;;9.48;100.00
32933;BME280;19444;50.518;10.870;2023-03-14T12:40:29;94288.56;;;9.52;100.00
32933;BME280;19444;50.518;10.870;2023-03-14T12:43:31;94281.00;;;9.58;100.00
32933;BME280;19444;50.518;10.870;2023-03-14T12:46:28;94274.16;;;9.37;100.00
32933;BME280;19444;50.518;10.870;2023-03-14T12:49:33;94280.63;;;9.36;100.00
32933;BME280;19444;50.518;10.870;2023-03-14T12:52:53;94282.38;;;9.48;100.00
32933;BME280;19444;50.518;10.870;2023-03-14T12:59:31;94300.38;;;9.32;100.00
32933;BME280;19444;50.518;10.870;2023-03-14T13:02:43;94293.50;;;9.31;100.00
32933;BME280;19444;50.518;10.870;2023-03-14T13:06:02;94297.72;;;9.12;100.00
32933;BME280;19444;50.518;10.870;2023-03-14T13:09:52;94315.63;;;8.93;100.00
32933;BME280;19444;50.518;10.870;2023-03-14T13:13:25;94313.13;;;8.65;100.00
32933;BME280;19444;50.518;10.870;2023-03-14T13:16:23;94331.75;;;8.61;100.00
32933;BME280;19444;50.518;10.870;2023-03-14T13:19:27;94315.91;;;8.52;100.00
32933;BME280;19444;50.518;10.870;2023-03-14T13:22:31;94328.25;;;8.41;100.00
32933;BME280;19444;50.518;10.870;2023-03-14T13:25:32;94333.13;;;8.23;100.00
32933;BME280;19444;50.518;10.870;2023-03-14T13:28:31;94331.75;;;8.30;100.00
32933;BME280;19444;50.518;10.870;2023-03-14T13:31:28;94342.94;;;8.19;100.00
32933;BME280;19444;50.518;10.870;2023-03-14T13:34:32;94334.59;;;8.05;100.00
32933;BME280;19444;50.518;10.870;2023-03-14T13:37:29;94345.59;;;8.04;100.00
32933;BME280;19444;50.518;10.870;2023-03-14T13:40:31;94348.09;;;8.12;100.00
32933;BME280;19444;50.518;10.870;2023-03-14T13:43:38;94346.38;;;8.04;100.00
32933;BME280;19444;50.518;10.870;2023-03-14T13:46:36;94338.22;;;7.97;100.00
32933;BME280;19444;50.518;10.870;2023-03-14T13:49:37;94338.53;;;7.80;100.00
32933;BME280;19444;50.518;10.870;2023-03-14T13:52:38;94337.16;;;8.02;100.00
32933;BME280;19444;50.518;10.870;2023-03-14T13:55:35;94336.31;;;7.97;100.00
32933;BME280;19444;50.518;10.870;2023-03-14T13:58:32;94335.00;;;7.91;100.00
32933;BME280;19444;50.518;10.870;2023-03-14T14:01:34;94333.03;;;7.88;100.00
32933;BME280;19444;50.518;10.870;2023-03-14T14:04:33;94326.94;;;7.88;100.00
32933;BME280;19444;50.518;10.870;2023-03-14T14:07:33;94327.44;;;7.93;100.00
32933;BME280;19444;50.518;10.870;2023-03-14T14:10:30;94319.44;;;7.93;100.00
32933;BME280;19444;50.518;10.870;2023-03-14T14:13:30;94323.16;;;7.89;100.00
32933;BME280;19444;50.518;10.870;2023-03-14T14:16:29;94328.44;;;7.73;100.00
32933;BME280;19444;50.518;10.870;2023-03-14T14:19:28;94331.66;;;7.79;100.00
32933;BME280;19444;50.518;10.870;2023-03-14T14:22:27;94330.09;;;7.78;100.00
32933;BME280;19444;50.518;10.870;2023-03-14T14:25:24;94326.81;;;7.84;100.00
32933;BME280;19444;50.518;10.870;2023-03-14T14:28:31;94341.28;;;7.83;100.00
32933;BME280;19444;50.518;10.870;2023-03-14T14:31:29;94355.91;;;7.89;100.00
32933;BME280;19444;50.518;10.870;2023-03-14T14:34:26;94456.09;;;7.22;100.00
32933;BME280;19444;50.518;10.870;2023-03-14T14:37:44;94448.97;;;6.16;100.00
32933;BME280;19444;50.518;10.870;2023-03-14T14:40:48;94470.09;;;6.58;100.00
32933;BME280;19444;50.518;10.870;2023-03-14T14:43:45;94479.31;;;6.61;100.00
32933;BME280;19444;50.518;10.870;2023-03-14T14:46:42;94503.47;;;6.43;100.00
32933;BME280;19444;50.518;10.870;2023-03-14T14:49:40;94531.59;;;6.32;100.00
32933;BME280;19444;50.518;10.870;2023-03-14T14:52:41;94538.63;;;6.16;100.00
32933;BME280;19444;50.518;10.870;2023-03-14T14:55:40;94586.97;;;6.30;100.00
32933;BME280;19444;50.518;10.870;2023-03-14T14:58:45;94609.69;;;5.56;100.00
32933;BME280;19444;50.518;10.870;2023-03-14T15:01:42;94628.81;;;5.50;100.00
32933;BME280;19444;50.518;10.870;2023-03-14T15:04:39;94638.25;;;5.30;100.00
32933;BME280;19444;50.518;10.870;2023-03-14T15:07:36;94637.50;;;5.21;100.00
32933;BME280;19444;50.518;10.870;2023-03-14T15:10:33;94650.81;;;5.12;100.00
32933;BME280;19444;50.518;10.870;2023-03-14T15:13:30;94655.66;;;5.19;100.00
32933;BME280;19444;50.518;10.870;2023-03-14T15:16:29;94673.63;;;5.22;100.00
32933;BME280;19444;50.518;10.870;2023-03-14T15:19:27;94687.56;;;4.93;100.00
32933;BME280;19444;50.518;10.870;2023-03-14T15:22:26;94704.00;;;4.77;100.00
32933;BME280;19444;50.518;10.870;2023-03-14T15:25:22;94712.13;;;4.64;100.00
32933;BME280;19444;50.518;10.870;2023-03-14T15:28:39;94731.97;;;4.57;100.00
32933;BME280;19444;50.518;10.870;2023-03-14T15:31:36;94715.38;;;4.87;100.00
32933;BME280;19444;50.518;10.870;2023-03-14T15:34:33;94747.81;;;5.01;100.00
32933;BME280;19444;50.518;10.870;2023-03-14T15:37:30;94746.91;;;4.62;100.00
32933;BME280;19444;50.518;10.870;2023-03-14T15:40:27;94755.53;;;4.76;100.00
32933;BME280;19444;50.518;10.870;2023-03-14T15:43:26;94769.56;;;4.68;100.00
32933;BME280;19444;50.518;10.870;2023-03-14T15:46:23;94800.13;;;4.66;100.00
32933;BME280;19444;50.518;10.870;2023-03-14T15:49:20;94810.88;;;4.43;100.00
32933;BME280;19444;50.518;10.870;2023-03-14T15:52:17;94822.94;;;4.67;100.00
32933;BME280;19444;50.518;10.870;2023-03-14T15:55:14;94833.78;;;4.31;100.00
32933;BME280;19444;50.518;10.870;2023-03-14T15:58:17;94845.69;;;4.42;100.00
32933;BME280;19444;50.518;10.870;2023-03-14T16:01:17;94858.34;;;4.62;100.00
32933;BME280;19444;50.518;10.870;2023-03-14T16:04:14;94878.16;;;4.08;100.00
32933;BME280;19444;50.518;10.870;2023-03-14T16:07:11;94901.56;;;4.14;100.00
32933;BME280;19444;50.518;10.870;2023-03-14T16:10:11;94914.56;;;3.93;100.00
32933;BME280;19444;50.518;10.870;2023-03-14T16:13:08;94911.56;;;3.86;100.00
32933;BME280;19444;50.518;10.870;2023-03-14T16:16:06;94925.59;;;3.64;100.00
32933;BME280;19444;50.518;10.870;2023-03-14T16:19:06;94946.09;;;3.50;100.00
32933;BME280;19444;50.518;10.870;2023-03-14T16:22:04;94973.00;;;3.66;100.00
32933;BME280;19444;50.518;10.870;2023-03-14T16:25:06;94987.88;;;3.76;100.00
32933;BME280;19444;50.518;10.870;2023-03-14T16:28:03;95007.28;;;3.85;100.00
32933;BME280;19444;50.518;10.870;2023-03-14T16:31:10;95000.44;;;3.92;100.00
32933;BME280;19444;50.518;10.870;2023-03-14T16:34:09;95010.53;;;4.04;100.00